Time;durP1;ratioP1;P1;durP2;ratioP2;P2;SDS_P1;SDS_P2;PMS_P1;PMS_P2;Temp;Humidity;BMP_temperature;BMP_pressure;BME280_temperature;BME280_humidity;BME280_pressure;Samples;Min_cycle;Max_cycle;Signal;HPM_P1;HPM_P2
2022/01/18 00:01:26;;;;;;;4.20;0.90;;;;;;;0.23;69.88;98475.97;1693286;84;22488;-73
2022/01/18 00:03:53;;;;;;;2.47;0.95;;;;;;;0.22;69.88;98473.01;1694518;84;20996;-73
2022/01/18 00:06:20;;;;;;;3.30;0.80;;;;;;;0.22;69.89;98485.98;1685071;83;21053;-73
2022/01/18 00:08:49;;;;;;;2.40;0.80;;;;;;;0.21;69.94;98493.41;1697143;84;20971;-74
2022/01/18 00:11:22;;;;;;;2.72;1.07;;;;;;;0.21;69.87;98488.70;1697314;84;20972;-75
2022/01/18 00:13:56;;;;;;;3.65;0.80;;;;;;;0.21;69.77;98488.22;1704741;82;21819;-73
2022/01/18 00:16:29;;;;;;;2.55;0.98;;;;;;;0.20;69.87;98488.33;1678336;84;22345;-73
2022/01/18 00:18:56;;;;;;;2.27;0.70;;;;;;;0.20;69.79;98483.97;1699648;84;20972;-73
2022/01/18 00:23:59;;;;;;;2.08;0.88;;;;;;;0.19;69.79;98482.31;1700585;84;21501;-73
2022/01/18 00:26:29;;;;;;;2.40;0.90;;;;;;;0.19;69.69;98487.94;1689775;84;21835;-73
2022/01/18 00:29:00;;;;;;;1.55;0.80;;;;;;;0.18;69.76;98491.00;1704040;84;20979;-73
2022/01/18 00:34:09;;;;;;;2.57;0.80;;;;;;;0.14;69.63;98487.44;1705740;84;21042;-73
2022/01/18 00:36:52;;;;;;;2.65;0.90;;;;;;;0.11;69.61;98480.69;1695940;84;21048;-72
2022/01/18 00:39:10;;;;;;;1.87;0.60;;;;;;;0.10;69.62;98480.80;1686818;83;21839;-71
2022/01/18 00:41:36;;;;;;;6.47;1.05;;;;;;;0.07;69.73;98483.11;1669348;84;21568;-73
2022/01/18 00:44:03;;;;;;;1.55;0.70;;;;;;;0.04;69.84;98483.80;1689835;84;20964;-73
2022/01/18 00:46:30;;;;;;;2.90;0.80;;;;;;;0.06;69.90;98489.70;1641971;84;21478;-73
2022/01/18 00:49:00;;;;;;;2.52;0.80;;;;;;;0.05;69.94;98485.45;1672987;84;21344;-73
2022/01/18 00:51:25;;;;;;;2.25;0.80;;;;;;;0.03;70.00;98476.47;1694162;84;21856;-73
2022/01/18 00:53:51;;;;;;;3.15;1.00;;;;;;;0.05;70.12;98481.55;1670064;85;21000;-72
2022/01/18 00:58:47;;;;;;;2.77;0.72;;;;;;;0.05;70.31;98481.09;1664303;84;20985;-73
2022/01/18 01:01:14;;;;;;;1.85;0.72;;;;;;;0.06;70.41;98485.81;1686058;84;20876;-73
2022/01/18 01:03:41;;;;;;;2.17;0.78;;;;;;;0.07;70.53;98489.59;1697574;84;21890;-73
2022/01/18 01:06:08;;;;;;;1.77;0.80;;;;;;;0.06;70.74;98485.34;1674894;85;21100;-71
2022/01/18 01:08:35;;;;;;;1.72;1.00;;;;;;;0.07;70.81;98488.77;1672828;84;21032;-72
2022/01/18 01:11:07;;;;;;;2.62;0.95;;;;;;;0.08;70.92;98490.42;1690576;84;21073;-73
2022/01/18 01:13:34;;;;;;;1.80;0.72;;;;;;;0.08;71.09;98485.23;1670415;84;20983;-72
2022/01/18 01:18:49;;;;;;;2.72;0.80;;;;;;;0.09;71.59;98485.13;1686397;84;21467;-73
2022/01/18 01:34:49;;;;;;;2.00;0.80;;;;;;;0.08;72.25;98487.36;1688526;84;21000;-73
2022/01/18 01:45:35;;;;;;;1.60;0.70;;;;;;;0.04;72.49;98492.41;1693578;84;21349;-73
2022/01/18 01:48:03;;;;;;;3.17;0.90;;;;;;;0.03;72.55;98495.94;1680597;84;20971;-73
2022/01/18 01:53:18;;;;;;;2.55;0.72;;;;;;;0.04;72.62;98474.70;1687493;83;20988;-73
2022/01/18 01:55:45;;;;;;;1.47;0.70;;;;;;;0.04;72.62;98482.03;1691246;84;21840;-73
2022/01/18 01:58:11;;;;;;;2.05;0.85;;;;;;;0.04;72.63;98479.43;1706595;84;21024;-72
2022/01/18 02:00:47;;;;;;;1.92;0.78;;;;;;;0.04;72.60;98478.59;1707214;82;21102;-71
2022/01/18 02:03:14;;;;;;;1.47;0.70;;;;;;;0.04;72.62;98476.00;1696078;84;20979;-72
2022/01/18 02:05:41;;;;;;;1.25;0.68;;;;;;;0.04;72.61;98490.28;1706449;84;21027;-73
2022/01/18 02:08:08;;;;;;;3.02;0.80;;;;;;;0.05;72.61;98484.98;1707611;82;21834;-73
2022/01/18 02:10:38;;;;;;;2.42;0.70;;;;;;;0.04;72.57;98486.39;1692328;84;20956;-73
2022/01/18 02:13:05;;;;;;;2.65;0.75;;;;;;;0.06;72.59;98498.79;1705038;83;21007;-73
2022/01/18 02:15:38;;;;;;;2.58;0.85;;;;;;;0.06;72.66;98486.64;1708147;82;20952;-73
2022/01/18 02:23:32;;;;;;;2.87;0.98;;;;;;;0.05;73.36;98506.22;1686850;84;21449;-72
2022/01/18 02:25:58;;;;;;;1.65;0.85;;;;;;;0.01;74.04;98504.77;1679709;84;21011;-71
2022/01/18 02:28:26;;;;;;;1.52;0.80;;;;;;;-0.04;74.58;98511.08;1706962;82;21008;-73
2022/01/18 02:30:53;;;;;;;1.25;0.80;;;;;;;-0.11;75.13;98498.59;1702286;84;20968;-73
2022/01/18 02:33:19;;;;;;;2.60;1.20;;;;;;;-0.17;75.40;98502.44;1705089;82;21926;-73
2022/01/18 02:35:47;;;;;;;1.65;1.02;;;;;;;-0.23;75.97;98493.75;1666596;85;20956;-73
2022/01/18 02:38:13;;;;;;;2.58;1.20;;;;;;;-0.25;76.17;98481.82;1698063;84;21027;-73
2022/01/18 02:40:41;;;;;;;1.35;1.05;;;;;;;-0.26;76.42;98494.42;1705560;84;21027;-73
2022/01/18 02:45:55;;;;;;;3.62;1.25;;;;;;;-0.31;77.38;98515.47;1698826;84;21842;-72
2022/01/18 02:48:22;;;;;;;2.15;0.80;;;;;;;-0.54;82.96;98542.05;1698497;83;21017;-72
2022/01/18 02:50:49;;;;;;;1.40;0.50;;;;;;;-0.90;85.16;98557.20;1685362;85;20984;-74
2022/01/18 02:53:20;;;;;;;1.30;0.50;;;;;;;-1.29;86.19;98564.34;1699370;84;21009;-73
2022/01/18 02:55:52;;;;;;;1.07;0.40;;;;;;;-1.55;86.88;98583.17;1710839;82;20948;-73
2022/01/18 02:58:33;;;;;;;2.95;0.50;;;;;;;-1.78;87.16;98616.41;1729565;82;21836;-73
2022/01/18 03:03:34;;;;;;;1.55;0.57;;;;;;;-2.01;87.20;98611.72;1682819;84;21067;-73
2022/01/18 03:06:01;;;;;;;0.53;0.42;;;;;;;-2.04;87.20;98632.11;1679111;85;21016;-72
2022/01/18 03:08:28;;;;;;;2.42;0.42;;;;;;;-2.10;87.15;98633.76;1695573;84;20940;-73
2022/01/18 03:10:55;;;;;;;2.47;1.65;;;;;;;-2.12;87.11;98635.61;1689426;84;21749;-73
2022/01/18 03:13:21;;;;;;;3.50;1.72;;;;;;;-2.12;87.12;98649.00;1663960;86;21015;-73
2022/01/18 03:15:48;;;;;;;1.85;0.30;;;;;;;-2.13;87.08;98652.02;1688049;83;21470;-73
2022/01/18 03:18:14;;;;;;;1.45;0.95;;;;;;;-2.15;87.05;98653.03;1693084;84;21034;-72
2022/01/18 03:20:41;;;;;;;3.58;1.20;;;;;;;-2.12;87.05;98656.76;1670046;85;21008;-73
2022/01/18 03:23:16;;;;;;;4.53;2.87;;;;;;;-2.12;87.06;98670.98;1696731;84;21897;-74
2022/01/18 03:25:51;;;;;;;2.00;1.20;;;;;;;-2.10;87.04;98674.31;1681373;84;21519;-73
2022/01/18 03:28:09;;;;;;;1.05;0.57;;;;;;;-2.10;86.98;98669.14;1682401;84;21359;-73
2022/01/18 03:30:44;;;;;;;2.08;1.00;;;;;;;-2.13;86.91;98677.88;1680994;84;21040;-73
2022/01/18 03:33:14;;;;;;;1.02;0.80;;;;;;;-2.15;86.86;98697.00;1693955;83;21016;-73
2022/01/18 03:35:42;;;;;;;1.75;0.50;;;;;;;-2.17;86.80;98706.59;1689272;83;21836;-73
2022/01/18 03:38:09;;;;;;;4.03;1.25;;;;;;;-2.22;86.70;98695.22;1690026;84;21039;-73
2022/01/18 03:40:35;;;;;;;3.15;0.60;;;;;;;-2.23;86.65;98701.74;1691928;84;20984;-73
2022/01/18 03:43:02;;;;;;;1.05;0.60;;;;;;;-2.23;86.60;98708.20;1692273;84;21459;-73
2022/01/18 03:45:32;;;;;;;1.87;1.10;;;;;;;-2.23;86.51;98705.16;1689203;84;21570;-73
2022/01/18 03:48:05;;;;;;;1.25;0.90;;;;;;;-2.24;86.45;98707.84;1682704;84;21876;-73
2022/01/18 03:50:28;;;;;;;4.40;1.77;;;;;;;-2.25;86.35;98707.47;1693068;83;21074;-73
2022/01/18 03:52:54;;;;;;;1.00;0.60;;;;;;;-2.25;86.35;98735.91;1665337;86;20981;-72
2022/01/18 03:55:22;;;;;;;1.25;0.70;;;;;;;-2.24;86.31;98734.53;1699500;84;21414;-73
2022/01/18 03:57:49;;;;;;;1.92;0.60;;;;;;;-2.23;86.29;98753.00;1691597;83;21139;-73
2022/01/18 04:00:21;;;;;;;0.90;0.40;;;;;;;-2.19;86.28;98754.53;1689903;84;21893;-73
2022/01/18 04:02:48;;;;;;;1.52;0.70;;;;;;;-2.16;86.33;98759.53;1690712;84;20980;-73
2022/01/18 04:05:14;;;;;;;1.30;0.50;;;;;;;-2.14;86.20;98768.03;1699006;84;21011;-73
2022/01/18 04:07:41;;;;;;;2.67;0.30;;;;;;;-2.18;86.09;98787.69;1690251;84;21096;-73
2022/01/18 04:10:08;;;;;;;3.12;2.00;;;;;;;-2.21;85.96;98805.97;1692363;84;21090;-72
2022/01/18 04:12:36;;;;;;;2.12;1.15;;;;;;;-2.33;85.74;98840.58;1674446;84;21814;-72
2022/01/18 04:15:04;;;;;;;0.60;0.40;;;;;;;-2.49;85.51;98807.85;1682528;84;21332;-72
2022/01/18 04:26:02;;;;;;;1.50;0.80;;;;;;;-2.94;85.36;98869.95;1685205;84;21894;-72
2022/01/18 04:30:59;;;;;;;1.72;1.10;;;;;;;-2.93;85.24;98882.78;1696537;84;21072;-73
2022/01/18 04:33:26;;;;;;;1.15;0.53;;;;;;;-2.87;85.07;98884.70;1669541;85;20981;-73
2022/01/18 04:35:52;;;;;;;2.30;0.60;;;;;;;-2.83;84.75;98892.67;1695224;83;21000;-73
2022/01/18 04:38:19;;;;;;;0.60;0.50;;;;;;;-2.81;84.73;98894.27;1691281;83;21833;-73
2022/01/18 04:40:47;;;;;;;1.05;0.60;;;;;;;-2.79;84.70;98899.38;1682922;83;21073;-73
2022/01/18 04:43:43;;;;;;;3.35;0.55;;;;;;;-2.80;84.55;98910.14;1666036;84;21620;-73
2022/01/18 04:48:40;;;;;;;5.75;0.50;;;;;;;-2.82;84.28;98923.60;1699075;83;20995;-73
2022/01/18 04:51:11;;;;;;;1.30;0.40;;;;;;;-2.91;83.92;98931.79;1688398;84;21837;-72
2022/01/18 04:53:51;;;;;;;1.90;0.60;;;;;;;-3.02;83.69;98940.51;1688991;84;20989;-73
2022/01/18 04:56:19;;;;;;;3.00;0.68;;;;;;;-3.13;83.47;98951.80;1686463;84;21011;-72
2022/01/18 04:58:45;;;;;;;1.70;0.50;;;;;;;-3.20;83.18;98949.48;1685670;83;20993;-73
2022/01/18 05:01:12;;;;;;;0.98;0.47;;;;;;;-3.20;82.43;98958.52;1676832;84;21064;-73
2022/01/18 05:03:39;;;;;;;4.12;2.27;;;;;;;-3.17;82.17;98982.10;1688570;84;21774;-72
2022/01/18 05:06:12;;;;;;;5.58;2.98;;;;;;;-3.11;81.97;98975.80;1691890;84;21506;-72
2022/01/18 05:08:37;;;;;;;2.87;1.87;;;;;;;-3.11;81.21;98966.30;1686092;84;21004;-74
2022/01/18 05:11:04;;;;;;;3.37;1.60;;;;;;;-3.11;80.00;98984.84;1687299;84;21091;-73
2022/01/18 05:14:05;;;;;;;2.83;1.35;;;;;;;-3.15;78.79;98981.58;1674638;84;21023;-72
2022/01/18 05:19:01;;;;;;;3.67;0.90;;;;;;;-3.12;78.95;98994.33;1668389;84;20984;-72
2022/01/18 05:21:27;;;;;;;1.62;0.95;;;;;;;-3.15;77.35;98994.48;1691372;84;21020;-73
2022/01/18 05:23:52;;;;;;;4.47;0.95;;;;;;;-3.15;77.25;99000.11;1667436;85;21082;-73
2022/01/18 05:26:20;;;;;;;2.92;0.72;;;;;;;-3.17;76.91;99014.38;1691183;84;21108;-73
2022/01/18 05:28:46;;;;;;;2.85;1.32;;;;;;;-3.23;75.71;99010.31;1673405;85;22478;-73
2022/01/18 05:31:12;;;;;;;2.83;1.65;;;;;;;-3.22;75.39;99004.70;1666060;86;21059;-74
2022/01/18 05:33:41;;;;;;;3.05;1.70;;;;;;;-3.28;73.27;99010.13;1672501;84;21016;-71
2022/01/18 05:36:09;;;;;;;2.72;1.30;;;;;;;-3.25;74.05;99017.75;1680416;83;20996;-72
2022/01/18 05:38:35;;;;;;;3.12;1.00;;;;;;;-3.25;73.99;99028.09;1673809;84;20961;-72
2022/01/18 05:41:04;;;;;;;2.55;1.70;;;;;;;-3.27;72.95;99028.61;1694664;84;22450;-72
2022/01/18 05:43:31;;;;;;;7.78;1.20;;;;;;;-3.28;71.81;99046.27;1693981;84;21027;-73
2022/01/18 05:45:57;;;;;;;3.20;1.50;;;;;;;-3.30;70.89;99031.31;1703250;83;20974;-73
2022/01/18 05:48:24;;;;;;;3.62;1.90;;;;;;;-3.27;71.10;99040.23;1630381;86;21012;-73
2022/01/18 05:50:52;;;;;;;3.08;0.90;;;;;;;-3.27;70.83;99015.70;1651528;86;21036;-73
2022/01/18 05:53:19;;;;;;;1.25;0.70;;;;;;;-3.28;69.71;99056.18;1657242;86;22522;-73
2022/01/18 05:55:46;;;;;;;1.50;0.60;;;;;;;-3.30;68.00;99053.25;1650529;86;20987;-73
2022/01/18 05:58:12;;;;;;;4.47;0.75;;;;;;;-3.30;68.51;99061.84;1645675;86;21161;-73
2022/01/18 06:00:41;;;;;;;3.25;0.80;;;;;;;-3.30;67.48;99072.16;1654343;86;21044;-73
2022/01/18 06:03:16;;;;;;;1.42;0.90;;;;;;;-3.30;66.63;99088.11;1656986;86;20974;-72
2022/01/18 06:08:26;;;;;;;3.40;0.93;;;;;;;-3.29;65.51;99106.11;1646145;85;20975;-74
2022/01/18 06:10:53;;;;;;;1.87;0.88;;;;;;;-3.30;65.35;99116.06;1639563;86;21086;-74
2022/01/18 06:13:19;;;;;;;1.82;1.00;;;;;;;-3.29;64.78;99119.02;1635362;86;21090;-73
2022/01/18 06:15:46;;;;;;;0.95;0.55;;;;;;;-3.27;64.83;99124.98;1651389;84;20955;-73
2022/01/18 06:18:14;;;;;;;1.80;0.80;;;;;;;-3.29;63.39;99128.06;1688194;84;21014;-73
2022/01/18 06:20:43;;;;;;;1.57;0.70;;;;;;;-3.26;63.62;99135.70;1690910;84;21018;-73
2022/01/18 06:23:10;;;;;;;6.33;2.98;;;;;;;-3.26;63.49;99133.56;1688213;84;21557;-73
2022/01/18 06:25:37;;;;;;;4.80;2.80;;;;;;;-3.30;63.26;99142.33;1690812;84;21425;-73
2022/01/18 06:28:04;;;;;;;5.15;3.08;;;;;;;-3.31;63.56;99135.49;1680276;84;20971;-73
2022/01/18 06:30:32;;;;;;;9.10;4.55;;;;;;;-3.33;63.57;99139.89;1659421;84;21832;-74
2022/01/18 06:32:58;;;;;;;10.78;7.80;;;;;;;-3.36;63.67;99152.94;1660842;84;21077;-74
2022/01/18 06:35:25;;;;;;;7.87;4.33;;;;;;;-3.39;64.10;99148.72;1673245;84;21133;-73
2022/01/18 06:37:51;;;;;;;10.23;6.22;;;;;;;-3.40;64.29;99161.24;1665706;84;21025;-73
2022/01/18 06:40:18;;;;;;;4.45;2.50;;;;;;;-3.42;64.35;99168.67;1687750;84;21369;-74
2022/01/18 06:42:44;;;;;;;2.52;1.70;;;;;;;-3.44;64.56;99179.52;1684951;84;21414;-74
2022/01/18 06:45:11;;;;;;;8.53;5.17;;;;;;;-3.47;64.71;99163.27;1685091;84;21018;-74
2022/01/18 06:47:38;;;;;;;3.27;2.05;;;;;;;-3.43;65.12;99178.61;1671960;84;21027;-73
2022/01/18 06:50:11;;;;;;;5.50;2.87;;;;;;;-3.41;65.20;99180.67;1693420;84;20980;-74
2022/01/18 06:52:40;;;;;;;7.20;4.40;;;;;;;-3.39;65.22;99187.90;1686467;84;20965;-73
2022/01/18 06:55:08;;;;;;;6.30;3.15;;;;;;;-3.38;65.40;99171.50;1682531;83;21877;-73
2022/01/18 06:57:35;;;;;;;6.08;3.85;;;;;;;-3.40;65.65;99184.93;1689797;84;20952;-73
2022/01/18 07:00:02;;;;;;;7.35;3.90;;;;;;;-3.41;65.84;99179.38;1691716;84;21007;-73
2022/01/18 07:02:28;;;;;;;4.45;1.98;;;;;;;-3.42;65.92;99179.00;1685025;84;21115;-73
2022/01/18 07:04:55;;;;;;;6.55;3.92;;;;;;;-3.42;66.12;99179.00;1690297;84;21094;-73
2022/01/18 07:07:23;;;;;;;11.48;7.03;;;;;;;-3.41;66.06;99181.97;1679721;84;21812;-74
2022/01/18 07:09:50;;;;;;;3.37;2.08;;;;;;;-3.39;65.95;99186.61;1681811;84;21500;-72
2022/01/18 07:12:17;;;;;;;8.08;3.80;;;;;;;-3.39;66.29;99185.31;1691939;84;21340;-72
2022/01/18 07:14:44;;;;;;;10.72;5.22;;;;;;;-3.38;66.37;99196.86;1690168;84;20977;-73
2022/01/18 07:17:12;;;;;;;3.02;1.67;;;;;;;-3.38;66.65;99220.09;1673783;83;21008;-74
2022/01/18 07:19:39;;;;;;;8.38;2.52;;;;;;;-3.38;67.46;99215.39;1670147;84;21791;-75
2022/01/18 07:22:05;;;;;;;8.95;5.12;;;;;;;-3.37;67.66;99224.84;1673116;84;20962;-77
2022/01/18 07:24:43;;;;;;;4.33;1.95;;;;;;;-3.35;67.91;99238.06;1687895;84;21058;-73
2022/01/18 07:27:11;;;;;;;3.72;2.33;;;;;;;-3.34;67.69;99235.03;1700798;83;21011;-75
2022/01/18 07:29:38;;;;;;;3.95;2.05;;;;;;;-3.38;67.20;99239.91;1663579;84;20957;-75
2022/01/18 07:32:07;;;;;;;4.17;1.27;;;;;;;-3.36;67.08;99228.64;1700992;83;21798;-75
2022/01/18 07:34:38;;;;;;;9.35;2.95;;;;;;;-3.35;66.78;99238.06;1690159;84;21328;-76
2022/01/18 07:37:04;;;;;;;7.95;4.12;;;;;;;-3.34;66.71;99244.91;1689411;84;20981;-76
2022/01/18 07:39:32;;;;;;;6.22;1.85;;;;;;;-3.30;66.26;99259.36;1692650;84;21490;-77
2022/01/18 07:41:59;;;;;;;3.35;1.50;;;;;;;-3.30;65.80;99253.35;1679456;83;21075;-75
2022/01/18 07:44:26;;;;;;;6.42;2.37;;;;;;;-3.26;65.87;99256.22;1697074;84;22141;-76
2022/01/18 07:46:53;;;;;;;3.70;1.40;;;;;;;-3.22;65.52;99273.25;1673813;84;21162;-73
2022/01/18 07:49:20;;;;;;;3.70;1.72;;;;;;;-3.20;64.46;99259.82;1661809;86;21052;-72
2022/01/18 07:51:46;;;;;;;2.35;1.50;;;;;;;-3.18;63.84;99266.63;1676074;84;21043;-73
2022/01/18 07:54:13;;;;;;;9.40;4.55;;;;;;;-3.17;63.04;99272.17;1690825;84;21400;-71
2022/01/18 07:56:41;;;;;;;7.00;3.12;;;;;;;-3.12;62.65;99286.63;1692842;83;22230;-72
2022/01/18 07:59:11;;;;;;;4.62;1.25;;;;;;;-3.09;62.32;99286.04;1702321;82;20955;-72
2022/01/18 08:01:41;;;;;;;2.35;1.47;;;;;;;-3.05;61.98;99307.44;1661345;84;21514;-72
2022/01/18 08:04:09;;;;;;;2.67;1.22;;;;;;;-3.01;61.46;99298.19;1690920;84;21035;-72
2022/01/18 08:06:35;;;;;;;1.80;1.00;;;;;;;-2.94;61.38;99323.33;1691162;83;20976;-72
2022/01/18 08:09:02;;;;;;;3.35;1.60;;;;;;;-2.92;60.56;99316.35;1677308;83;21808;-73
2022/01/18 08:11:28;;;;;;;1.72;0.90;;;;;;;-2.88;60.55;99314.05;1694469;83;21041;-72
2022/01/18 08:13:57;;;;;;;3.10;1.70;;;;;;;-2.84;60.34;99322.50;1690957;84;21047;-73
2022/01/18 08:18:57;;;;;;;1.77;0.80;;;;;;;-2.75;59.94;99340.21;1690525;84;21572;-73
2022/01/18 08:21:24;;;;;;;2.20;0.80;;;;;;;-2.76;59.33;99321.73;1689576;83;22476;-71
2022/01/18 08:23:50;;;;;;;3.47;0.90;;;;;;;-2.76;59.33;99341.95;1685691;84;21031;-72
2022/01/18 08:26:17;;;;;;;1.32;0.90;;;;;;;-2.71;59.69;99346.92;1690181;84;21055;-70
2022/01/18 08:28:44;;;;;;;3.58;2.45;;;;;;;-2.68;59.35;99350.69;1686521;84;21051;-71
2022/01/18 08:31:11;;;;;;;3.58;1.50;;;;;;;-2.66;59.79;99364.38;1661409;84;21019;-73
2022/01/18 08:33:38;;;;;;;2.33;1.05;;;;;;;-2.63;59.87;99341.81;1679367;84;22244;-71
2022/01/18 08:36:06;;;;;;;1.50;0.80;;;;;;;-2.63;59.44;99382.34;1694775;84;20996;-70
2022/01/18 08:38:34;;;;;;;1.70;1.05;;;;;;;-2.62;59.63;99369.80;1681035;84;21032;-69
2022/01/18 08:41:02;;;;;;;1.98;0.80;;;;;;;-2.64;59.51;99363.41;1695186;84;21047;-69
2022/01/18 08:43:31;;;;;;;2.92;1.00;;;;;;;-2.65;59.65;99369.48;1685221;83;21075;-70
2022/01/18 08:46:03;;;;;;;3.08;1.40;;;;;;;-2.63;59.96;99370.25;1700307;83;22475;-70
2022/01/18 08:48:30;;;;;;;2.60;1.45;;;;;;;-2.58;60.13;99375.25;1695638;84;21487;-70
2022/01/18 08:50:57;;;;;;;1.85;0.88;;;;;;;-2.59;59.99;99368.40;1676116;84;21081;-69
2022/01/18 08:53:23;;;;;;;1.87;0.80;;;;;;;-2.64;59.46;99385.83;1694350;84;21028;-69
2022/01/18 08:55:50;;;;;;;2.77;0.90;;;;;;;-2.74;59.24;99372.90;1691760;84;21493;-70
2022/01/18 08:58:16;;;;;;;1.75;1.00;;;;;;;-2.80;59.87;99373.98;1668763;84;22207;-70
2022/01/18 09:00:42;;;;;;;2.83;0.90;;;;;;;-2.77;60.20;99379.50;1689328;84;21064;-71
2022/01/18 09:03:09;;;;;;;2.15;0.95;;;;;;;-2.69;60.08;99383.91;1698947;83;21008;-71
2022/01/18 09:05:37;;;;;;;1.57;0.80;;;;;;;-2.65;60.24;99380.27;1704094;83;20988;-72
2022/01/18 09:08:08;;;;;;;1.67;0.80;;;;;;;-2.61;60.45;99390.44;1702788;84;21019;-71
2022/01/18 09:10:34;;;;;;;2.42;0.82;;;;;;;-2.53;60.57;99397.02;1680853;84;21703;-71
2022/01/18 09:13:01;;;;;;;2.50;1.00;;;;;;;-2.47;59.82;99399.36;1694273;84;21020;-71
2022/01/18 09:15:29;;;;;;;2.12;1.10;;;;;;;-2.47;59.30;99401.48;1687773;84;21083;-71
2022/01/18 09:17:56;;;;;;;3.02;0.80;;;;;;;-2.41;59.48;99402.54;1698125;84;39287;-71
2022/01/18 09:20:24;;;;;;;3.50;0.90;;;;;;;-2.43;58.47;99418.55;1690560;83;21039;-74
2022/01/18 09:22:52;;;;;;;3.35;0.78;;;;;;;-2.46;58.52;99418.68;1682465;84;21579;-71
2022/01/18 09:25:22;;;;;;;7.08;1.07;;;;;;;-2.49;58.33;99420.11;1691362;84;21527;-71
2022/01/18 09:27:49;;;;;;;2.12;1.10;;;;;;;-2.48;58.50;99423.08;1696471;84;21095;-71
2022/01/18 09:30:16;;;;;;;2.05;1.00;;;;;;;-2.47;58.68;99441.56;1694996;84;21424;-71
2022/01/18 09:32:44;;;;;;;2.15;1.05;;;;;;;-2.44;58.86;99450.94;1696957;84;21582;-73
2022/01/18 09:35:11;;;;;;;5.30;2.30;;;;;;;-2.41;58.94;99441.78;1693815;84;21793;-71
2022/01/18 09:37:38;;;;;;;6.55;1.20;;;;;;;-2.37;58.46;99431.23;1697438;84;20973;-72
2022/01/18 09:40:07;;;;;;;3.25;1.67;;;;;;;-2.26;56.93;99460.97;1693311;84;21028;-70
2022/01/18 09:42:35;;;;;;;6.58;2.27;;;;;;;-2.21;56.29;99467.66;1685138;83;20996;-71
2022/01/18 09:45:05;;;;;;;4.28;1.85;;;;;;;-2.15;56.34;99458.32;1687819;84;21024;-73
2022/01/18 09:47:32;;;;;;;3.08;1.70;;;;;;;-2.10;56.05;99468.03;1688414;84;21865;-73
2022/01/18 09:49:59;;;;;;;3.90;1.47;;;;;;;-2.06;56.37;99459.23;1698668;83;21419;-71
2022/01/18 09:52:27;;;;;;;2.72;1.82;;;;;;;-1.98;56.75;99459.36;1693699;84;20992;-71
2022/01/18 09:54:53;;;;;;;3.87;1.75;;;;;;;-1.96;56.64;99451.08;1686190;84;21044;-71
2022/01/18 09:57:20;;;;;;;4.08;2.25;;;;;;;-1.93;56.53;99464.74;1690888;84;21019;-70
2022/01/18 09:59:47;;;;;;;4.60;2.92;;;;;;;-1.90;57.00;99459.87;1687082;83;22678;-69
2022/01/18 10:02:13;;;;;;;2.58;1.07;;;;;;;-1.81;57.73;99473.27;1680226;84;20985;-71
2022/01/18 10:04:43;;;;;;;2.50;0.90;;;;;;;-1.82;55.53;99464.27;1681796;84;21103;-71
2022/01/18 10:07:10;;;;;;;2.22;1.10;;;;;;;-1.90;55.81;99471.07;1657582;85;21071;-70
2022/01/18 10:09:37;;;;;;;7.28;1.80;;;;;;;-2.00;56.63;99465.91;1689707;84;20972;-71
2022/01/18 10:12:15;;;;;;;3.67;1.62;;;;;;;-2.01;57.06;99470.69;1684161;84;21411;-72
2022/01/18 10:14:57;;;;;;;2.45;1.10;;;;;;;-1.95;57.33;99470.41;1674039;84;21023;-70
2022/01/18 10:17:39;;;;;;;3.72;1.07;;;;;;;-1.93;57.57;99493.20;1692928;83;21114;-72
2022/01/18 10:20:13;;;;;;;1.80;1.00;;;;;;;-2.00;57.21;99483.17;1691963;84;21462;-70
2022/01/18 10:22:41;;;;;;;2.15;0.93;;;;;;;-2.06;57.20;99487.69;1695826;83;21031;-72
2022/01/18 10:25:21;;;;;;;2.10;0.90;;;;;;;-2.06;57.56;99486.39;1697395;84;22539;-71
2022/01/18 10:27:53;;;;;;;2.35;1.00;;;;;;;-2.04;57.56;99483.73;1694988;84;21490;-70
2022/01/18 10:30:38;;;;;;;2.10;0.90;;;;;;;-2.00;57.66;99494.36;1697326;84;21503;-72
2022/01/18 10:33:10;;;;;;;3.83;1.25;;;;;;;-1.94;57.24;99490.20;1684514;83;21087;-72
2022/01/18 10:35:36;;;;;;;2.20;0.70;;;;;;;-1.93;57.60;99499.68;1688969;84;20992;-71
2022/01/18 10:38:08;;;;;;;1.87;1.00;;;;;;;-1.97;56.47;99498.56;1690220;84;21764;-73
2022/01/18 10:40:34;;;;;;;2.20;0.93;;;;;;;-2.04;56.79;99496.67;1692162;84;20849;-72
2022/01/18 10:43:05;;;;;;;1.57;0.90;;;;;;;-2.13;57.20;99516.45;1694322;84;21028;-73
2022/01/18 10:45:34;;;;;;;2.90;1.20;;;;;;;-2.25;57.90;99513.93;1681120;84;21108;-72
2022/01/18 10:48:10;;;;;;;3.90;1.25;;;;;;;-2.33;58.14;99514.69;1683206;84;21004;-74
2022/01/18 10:50:36;;;;;;;1.92;1.07;;;;;;;-2.30;58.50;99527.52;1687039;83;22655;-72
2022/01/18 10:53:18;;;;;;;1.80;0.93;;;;;;;-2.19;58.51;99514.14;1697059;84;21076;-73
2022/01/18 10:55:47;;;;;;;3.80;1.10;;;;;;;-2.11;57.27;99527.61;1697165;84;21059;-72
2022/01/18 10:58:17;;;;;;;2.60;1.12;;;;;;;-2.03;56.99;99550.10;1693232;83;21027;-72
2022/01/18 11:00:43;;;;;;;2.12;1.30;;;;;;;-2.04;57.02;99540.66;1701107;84;20987;-73
2022/01/18 11:03:10;;;;;;;2.75;1.50;;;;;;;-2.13;57.73;99555.27;1707283;84;21752;-73
2022/01/18 11:05:41;;;;;;;2.40;1.20;;;;;;;-2.23;58.57;99557.83;1697919;84;20972;-74
2022/01/18 11:08:08;;;;;;;3.20;1.50;;;;;;;-2.31;59.50;99571.09;1689666;84;20968;-73
2022/01/18 11:10:45;;;;;;;5.87;1.82;;;;;;;-2.33;60.36;99574.17;1664202;85;21020;-72
2022/01/18 11:13:13;;;;;;;2.72;1.67;;;;;;;-2.28;60.54;99568.83;1682631;85;21031;-73
2022/01/18 11:15:45;;;;;;;3.33;1.60;;;;;;;-2.18;60.49;99574.03;1707427;83;22584;-69
2022/01/18 11:18:17;;;;;;;1.55;1.07;;;;;;;-2.03;60.84;99566.92;1706921;83;21031;-72
2022/01/18 11:20:48;;;;;;;3.02;1.45;;;;;;;-1.90;59.86;99570.70;1694426;84;20924;-68
2022/01/18 11:23:15;;;;;;;17.67;10.40;;;;;;;-1.86;59.40;99573.55;1685363;84;21063;-77
2022/01/18 11:25:42;;;;;;;5.17;2.45;;;;;;;-1.80;59.44;99572.01;1700318;83;21062;-73
2022/01/18 11:28:10;;;;;;;3.33;1.65;;;;;;;-1.81;58.57;99575.50;1676850;84;21893;-74
2022/01/18 11:30:40;;;;;;;3.05;1.55;;;;;;;-1.84;59.02;99573.48;1699912;83;20956;-73
2022/01/18 11:33:11;;;;;;;2.67;1.10;;;;;;;-1.82;58.94;99575.13;1705826;83;21007;-73
2022/01/18 11:35:56;;;;;;;2.22;1.05;;;;;;;-1.86;58.16;99583.06;1698351;84;21438;-72
2022/01/18 11:38:42;;;;;;;4.17;1.72;;;;;;;-1.88;58.14;99580.99;1697567;84;21039;-73
2022/01/18 11:41:29;;;;;;;4.55;2.20;;;;;;;-1.80;57.97;99581.06;1692551;84;21533;-68
2022/01/18 11:43:56;;;;;;;2.92;1.30;;;;;;;-1.64;57.02;99560.99;1687097;84;20976;-73
2022/01/18 11:46:34;;;;;;;2.52;1.30;;;;;;;-1.65;56.08;99559.31;1680430;84;20996;-70
2022/01/18 11:49:07;;;;;;;1.35;0.95;;;;;;;-1.69;55.34;99592.72;1692860;84;21068;-71
2022/01/18 11:51:43;;;;;;;2.85;1.20;;;;;;;-1.79;54.84;99603.45;1690530;85;20961;-71
2022/01/18 11:54:36;;;;;;;1.95;1.15;;;;;;;-1.80;54.95;99603.07;1690635;85;21837;-70
2022/01/18 11:57:03;;;;;;;4.37;1.07;;;;;;;-1.76;55.18;99605.06;1659543;85;21032;-71
2022/01/18 11:59:39;;;;;;;1.98;1.00;;;;;;;-1.77;54.73;99643.06;1690850;84;21032;-71
2022/01/18 12:02:07;;;;;;;1.52;0.85;;;;;;;-1.85;54.83;99631.33;1699689;84;20968;-71
2022/01/18 12:07:38;;;;;;;1.25;0.88;;;;;;;-1.95;55.31;99628.27;1699848;84;21804;-71
2022/01/18 12:10:24;;;;;;;2.00;0.80;;;;;;;-2.03;55.52;99620.84;1682996;84;20964;-71
2022/01/18 12:12:52;;;;;;;11.10;4.60;;;;;;;-2.06;55.33;99645.97;1699846;83;21473;-72
2022/01/18 12:15:27;;;;;;;1.50;1.00;;;;;;;-2.13;55.04;99637.59;1691398;84;21047;-71
2022/01/18 12:18:01;;;;;;;6.08;1.25;;;;;;;-2.18;55.50;99651.63;1692342;84;20956;-70
2022/01/18 12:20:44;;;;;;;2.70;1.10;;;;;;;-2.18;56.50;99661.98;1699930;84;21817;-70
2022/01/18 12:23:17;;;;;;;3.75;1.17;;;;;;;-2.16;57.37;99657.58;1692043;84;21024;-72
2022/01/18 12:26:01;;;;;;;4.33;1.32;;;;;;;-2.14;58.12;99668.71;1692322;84;21043;-70
2022/01/18 12:34:44;;;;;;;5.00;1.22;;;;;;;-2.20;58.92;99668.52;1691815;84;21851;-71
2022/01/18 12:37:17;;;;;;;3.33;2.00;;;;;;;-2.23;58.84;99675.53;1691800;84;20988;-71
2022/01/18 12:45:20;;;;;;;5.90;2.92;;;;;;;-2.39;58.28;99678.72;1692440;84;21048;-71
2022/01/18 12:48:00;;;;;;;2.27;1.42;;;;;;;-2.38;58.13;99698.50;1699985;84;21862;-72
2022/01/18 12:50:49;;;;;;;2.27;1.30;;;;;;;-2.38;57.61;99700.25;1689089;84;20948;-72
2022/01/18 12:53:22;;;;;;;4.50;0.93;;;;;;;-2.35;57.82;99701.41;1696639;84;20983;-71
2022/01/18 12:55:57;;;;;;;2.62;1.70;;;;;;;-2.27;57.84;99714.06;1705647;84;20956;-71
2022/01/18 12:58:48;;;;;;;3.08;1.20;;;;;;;-2.25;57.77;99714.84;1697302;83;20984;-71
2022/01/18 13:01:16;;;;;;;4.87;2.02;;;;;;;-2.24;57.27;99706.18;1705103;83;22232;-71
2022/01/18 13:03:46;;;;;;;6.45;1.85;;;;;;;-2.27;57.55;99729.59;1697356;84;21016;-72
2022/01/18 13:06:21;;;;;;;4.67;3.08;;;;;;;-2.29;57.64;99736.11;1695858;84;21012;-72